createdAt,value
2023-02-16T00:00:56.267Z,3.65
2023-02-16T00:02:00.495Z,3.65
2023-02-16T00:03:04.615Z,3.66
2023-02-16T00:04:08.769Z,3.67
2023-02-16T00:05:13.058Z,3.66
2023-02-16T00:06:17.183Z,3.64
2023-02-16T00:07:21.452Z,3.63
2023-02-16T00:08:25.422Z,3.61
2023-02-16T00:09:29.609Z,3.60
2023-02-16T00:10:33.840Z,3.57
2023-02-16T00:11:37.946Z,3.56
2023-02-16T00:12:42.358Z,3.56
2023-02-16T00:13:46.411Z,3.54
2023-02-16T00:14:50.561Z,3.52
2023-02-16T00:15:54.793Z,3.50
2023-02-16T00:16:58.910Z,3.49
2023-02-16T00:18:03.125Z,3.48
2023-02-16T00:19:07.180Z,3.47
2023-02-16T00:20:11.451Z,3.48
2023-02-16T00:21:15.680Z,3.47
2023-02-16T00:22:19.916Z,3.46
2023-02-16T00:23:24.169Z,3.45
2023-02-16T00:24:28.258Z,3.42
2023-02-16T00:25:32.453Z,3.40
2023-02-16T00:26:36.663Z,3.39
2023-02-16T00:27:40.859Z,3.38
2023-02-16T00:28:44.928Z,3.38
2023-02-16T00:29:49.156Z,3.37
2023-02-16T00:30:53.469Z,3.37
2023-02-16T00:31:57.699Z,3.36
2023-02-16T00:33:01.736Z,3.36
2023-02-16T00:34:05.790Z,3.37
2023-02-16T00:35:10.013Z,3.37
2023-02-16T00:36:14.247Z,3.37
2023-02-16T00:37:18.382Z,3.37
2023-02-16T00:38:22.543Z,3.39
2023-02-16T00:39:26.811Z,3.40
2023-02-16T00:40:30.963Z,3.41
2023-02-16T00:41:35.245Z,3.42
2023-02-16T00:42:39.342Z,3.42
2023-02-16T00:43:43.501Z,3.43
2023-02-16T00:44:47.786Z,3.43
2023-02-16T00:45:52.027Z,3.43
2023-02-16T00:46:56.206Z,3.44
2023-02-16T00:48:00.399Z,3.44
2023-02-16T00:49:04.376Z,3.44
2023-02-16T00:50:08.577Z,3.43
2023-02-16T00:51:25.043Z,3.42
2023-02-16T00:52:16.898Z,3.42
2023-02-16T00:53:21.062Z,3.41
2023-02-16T00:54:25.216Z,3.40
2023-02-16T00:55:29.288Z,3.40
2023-02-16T00:56:33.470Z,3.39
2023-02-16T00:57:37.685Z,3.39
2023-02-16T00:58:41.830Z,3.39
2023-02-16T00:59:46.001Z,3.39
2023-02-16T01:00:50.149Z,3.39
2023-02-16T01:01:54.455Z,3.38
2023-02-16T01:02:58.470Z,3.37
2023-02-16T01:04:05.690Z,3.36
2023-02-16T01:05:08.907Z,3.36
2023-02-16T01:06:13.064Z,3.36
2023-02-16T01:07:17.206Z,3.35
2023-02-16T01:08:21.418Z,3.34
2023-02-16T01:09:25.668Z,3.33
2023-02-16T01:10:29.817Z,3.33
2023-02-16T01:11:33.976Z,3.32
2023-02-16T01:12:38.095Z,3.31
2023-02-16T01:13:42.275Z,3.30
2023-02-16T01:14:46.559Z,3.30
2023-02-16T01:15:50.760Z,3.29
2023-02-16T01:16:54.801Z,3.29
2023-02-16T01:17:58.938Z,3.29
2023-02-16T01:19:03.099Z,3.30
2023-02-16T01:20:07.357Z,3.30
2023-02-16T01:21:11.565Z,3.28
2023-02-16T01:22:15.556Z,3.26
2023-02-16T01:23:19.784Z,3.23
2023-02-16T01:24:24.009Z,3.22
2023-02-16T01:25:28.040Z,3.21
2023-02-16T01:26:32.226Z,3.21
2023-02-16T01:27:36.400Z,3.19
2023-02-16T01:28:40.644Z,3.19
2023-02-16T01:29:44.824Z,3.18
2023-02-16T01:30:48.929Z,3.18
2023-02-16T01:31:53.202Z,3.18
2023-02-16T01:32:57.116Z,3.18
2023-02-16T01:34:01.319Z,3.18
2023-02-16T01:35:05.508Z,3.17
2023-02-16T01:36:09.657Z,3.16
2023-02-16T01:37:13.806Z,3.16
2023-02-16T01:38:18.744Z,3.15
2023-02-16T01:39:21.985Z,3.15
2023-02-16T01:40:26.211Z,3.14
2023-02-16T01:41:30.394Z,3.12
2023-02-16T01:42:34.687Z,3.10
2023-02-16T01:43:38.789Z,3.07
2023-02-16T01:44:43.024Z,3.04
2023-02-16T01:45:47.122Z,3.02
2023-02-16T01:46:51.443Z,2.99
2023-02-16T01:47:55.344Z,2.99
2023-02-16T01:48:59.521Z,2.99
2023-02-16T01:50:03.824Z,2.98
2023-02-16T01:51:07.842Z,2.98
2023-02-16T01:52:12.054Z,2.98
2023-02-16T01:53:16.246Z,2.99
2023-02-16T01:54:20.399Z,2.99
2023-02-16T01:55:24.548Z,2.99
2023-02-16T01:56:28.629Z,2.99
2023-02-16T01:57:32.890Z,2.97
2023-02-16T01:58:37.028Z,2.95
2023-02-16T01:59:41.178Z,2.93
2023-02-16T02:00:45.368Z,2.90
2023-02-16T02:01:49.661Z,2.88
2023-02-16T02:02:53.613Z,2.86
2023-02-16T02:03:57.690Z,2.81
2023-02-16T02:05:01.834Z,2.77
2023-02-16T02:06:05.993Z,2.73
2023-02-16T02:07:10.198Z,2.69
2023-02-16T02:08:14.350Z,2.68
2023-02-16T02:09:18.426Z,2.66
2023-02-16T02:10:25.630Z,2.63
2023-02-16T02:11:28.837Z,2.57
2023-02-16T02:12:32.964Z,2.54
2023-02-16T02:13:37.013Z,2.52
2023-02-16T02:14:41.103Z,2.52
2023-02-16T02:15:45.323Z,2.50
2023-02-16T02:16:49.382Z,2.48
2023-02-16T02:17:53.545Z,2.48
2023-02-16T02:18:57.737Z,2.48
2023-02-16T02:20:01.768Z,2.48
2023-02-16T02:21:06.173Z,2.50
2023-02-16T02:22:10.061Z,2.53
2023-02-16T02:23:14.301Z,2.55
2023-02-16T02:24:18.486Z,2.56
2023-02-16T02:25:22.693Z,2.58
2023-02-16T02:26:26.697Z,2.58
2023-02-16T02:27:30.788Z,2.59
2023-02-16T02:28:34.884Z,2.61
2023-02-16T02:29:39.133Z,2.63
2023-02-16T02:30:43.269Z,2.64
2023-02-16T02:31:47.757Z,2.66
2023-02-16T02:32:51.700Z,2.67
2023-02-16T02:33:55.722Z,2.69
2023-02-16T02:34:59.953Z,2.69
2023-02-16T02:36:03.997Z,2.69
2023-02-16T02:37:08.218Z,2.70
2023-02-16T02:38:12.400Z,2.70
2023-02-16T02:39:16.577Z,2.70
2023-02-16T02:40:20.620Z,2.70
2023-02-16T02:41:24.701Z,2.70
2023-02-16T02:42:28.943Z,2.70
2023-02-16T02:43:33.215Z,2.70
2023-02-16T02:44:37.216Z,2.69
2023-02-16T02:45:41.433Z,2.68
2023-02-16T02:46:45.728Z,2.65
2023-02-16T02:47:49.828Z,2.61
2023-02-16T02:48:53.876Z,2.57
2023-02-16T02:49:57.989Z,2.55
2023-02-16T02:51:02.579Z,2.52
2023-02-16T02:52:06.423Z,2.48
2023-02-16T02:53:10.506Z,2.44
2023-02-16T02:54:14.593Z,2.44
2023-02-16T02:55:18.892Z,2.45
2023-02-16T02:56:23.042Z,2.48
2023-02-16T02:57:27.229Z,2.52
2023-02-16T02:58:31.228Z,2.55
2023-02-16T02:59:35.425Z,2.58
2023-02-16T03:00:39.738Z,2.61
2023-02-16T03:01:43.834Z,2.64
2023-02-16T03:02:48.003Z,2.67
2023-02-16T03:03:52.235Z,2.70
2023-02-16T03:04:56.380Z,2.72
2023-02-16T03:06:00.618Z,2.74
2023-02-16T03:07:10.706Z,2.76
2023-02-16T03:08:13.415Z,2.78
2023-02-16T03:09:17.655Z,2.79
2023-02-16T03:10:21.745Z,2.81
2023-02-16T03:11:25.764Z,2.83
2023-02-16T03:12:29.879Z,2.85
2023-02-16T03:13:34.240Z,2.87
2023-02-16T03:14:38.328Z,2.88
2023-02-16T03:15:42.564Z,2.89
2023-02-16T03:16:49.653Z,2.89
2023-02-16T03:17:52.892Z,2.91
2023-02-16T03:18:57.050Z,2.92
2023-02-16T03:20:01.173Z,2.93
2023-02-16T03:21:05.696Z,2.93
2023-02-16T03:22:09.517Z,2.94
2023-02-16T03:23:13.739Z,2.94
2023-02-16T03:24:17.954Z,2.94
2023-02-16T03:25:22.139Z,2.95
2023-02-16T03:26:26.371Z,2.95
2023-02-16T03:27:30.559Z,2.96
2023-02-16T03:28:34.690Z,2.96
2023-02-16T03:29:38.855Z,2.96
2023-02-16T03:30:43.152Z,2.97
2023-02-16T03:31:48.328Z,2.97
2023-02-16T03:32:51.959Z,2.97
2023-02-16T03:33:56.215Z,2.97
2023-02-16T03:35:00.272Z,2.97
2023-02-16T03:36:04.640Z,2.98
2023-02-16T03:37:08.773Z,2.99
2023-02-16T03:38:12.936Z,3.00
2023-02-16T03:39:17.007Z,2.99
2023-02-16T03:40:21.240Z,2.97
2023-02-16T03:41:25.539Z,2.94
2023-02-16T03:42:29.670Z,2.93
2023-02-16T03:43:33.756Z,2.91
2023-02-16T03:44:37.980Z,2.92
2023-02-16T03:45:42.144Z,2.92
2023-02-16T03:46:46.263Z,2.94
2023-02-16T03:47:50.435Z,2.95
2023-02-16T03:48:54.489Z,2.96
2023-02-16T03:49:58.631Z,2.96
2023-02-16T03:51:03.428Z,2.97
2023-02-16T03:52:07.069Z,2.98
2023-02-16T03:53:11.136Z,3.00
2023-02-16T03:54:15.392Z,3.01
2023-02-16T03:55:19.661Z,3.02
2023-02-16T03:56:23.746Z,3.04
2023-02-16T03:57:27.993Z,3.04
2023-02-16T03:58:32.338Z,3.06
2023-02-16T03:59:36.375Z,3.06
2023-02-16T04:00:40.597Z,3.08
2023-02-16T04:01:44.672Z,3.08
2023-02-16T04:02:48.942Z,3.08
2023-02-16T04:03:53.102Z,3.08
2023-02-16T04:04:57.145Z,3.08
2023-02-16T04:06:01.409Z,3.08
2023-02-16T04:07:05.595Z,3.08
2023-02-16T04:08:09.757Z,3.08
2023-02-16T04:09:13.918Z,3.07
2023-02-16T04:10:18.035Z,3.07
2023-02-16T04:11:22.205Z,3.06
2023-02-16T04:12:26.372Z,3.06
2023-02-16T04:13:30.550Z,3.06
2023-02-16T04:14:34.711Z,3.06
2023-02-16T04:15:38.895Z,3.06
2023-02-16T04:16:43.050Z,3.06
2023-02-16T04:17:47.179Z,3.07
2023-02-16T04:18:51.254Z,3.06
2023-02-16T04:19:55.412Z,3.05
2023-02-16T04:20:59.578Z,3.05
2023-02-16T04:22:03.746Z,3.05
2023-02-16T04:23:10.941Z,3.04
2023-02-16T04:24:14.048Z,3.04
2023-02-16T04:25:18.363Z,3.04
2023-02-16T04:26:22.376Z,3.03
2023-02-16T04:27:26.509Z,3.03
2023-02-16T04:28:30.820Z,3.03
2023-02-16T04:29:34.887Z,3.03
2023-02-16T04:30:39.338Z,3.03
2023-02-16T04:31:43.535Z,3.03
2023-02-16T04:32:47.521Z,3.03
2023-02-16T04:33:51.656Z,3.02
2023-02-16T04:34:55.849Z,3.02
2023-02-16T04:36:00.156Z,3.01
2023-02-16T04:37:04.353Z,3.01
2023-02-16T04:38:08.461Z,3.00
2023-02-16T04:39:12.692Z,3.00
2023-02-16T04:40:16.857Z,2.99
2023-02-16T04:41:21.110Z,2.99
2023-02-16T04:42:25.193Z,2.99
2023-02-16T04:43:29.334Z,2.98
2023-02-16T04:44:33.489Z,2.98
2023-02-16T04:45:37.655Z,2.98
2023-02-16T04:46:41.791Z,2.98
2023-02-16T04:47:46.045Z,2.98
2023-02-16T04:48:50.064Z,2.97
2023-02-16T04:49:54.290Z,2.98
2023-02-16T04:50:58.459Z,2.98
2023-02-16T04:52:02.656Z,2.97
2023-02-16T04:53:06.855Z,2.98
2023-02-16T04:54:10.983Z,2.98
2023-02-16T04:55:15.308Z,2.98
2023-02-16T04:56:19.321Z,2.99
2023-02-16T04:57:23.533Z,2.99
2023-02-16T04:58:27.690Z,2.99
2023-02-16T04:59:31.760Z,2.99
2023-02-16T05:00:36.638Z,3.00
2023-02-16T05:01:40.207Z,3.01
2023-02-16T05:02:44.373Z,3.01
2023-02-16T05:03:48.522Z,3.01
2023-02-16T05:04:52.760Z,3.01
2023-02-16T05:05:56.725Z,3.01
2023-02-16T05:07:00.941Z,3.01
2023-02-16T05:08:05.042Z,3.00
2023-02-16T05:09:09.427Z,3.00
2023-02-16T05:10:13.597Z,3.00
2023-02-16T05:11:17.728Z,3.00
2023-02-16T05:12:21.793Z,3.00
2023-02-16T05:13:25.906Z,3.00
2023-02-16T05:14:30.050Z,3.00
2023-02-16T05:15:34.414Z,2.99
2023-02-16T05:16:38.454Z,2.99
2023-02-16T05:17:42.564Z,2.99
2023-02-16T05:18:46.715Z,2.99
2023-02-16T05:19:50.901Z,3.00
2023-02-16T05:20:55.086Z,3.01
2023-02-16T05:23:26.195Z,3.03
2023-02-16T05:24:30.265Z,3.04
2023-02-16T05:25:34.423Z,3.04
2023-02-16T05:26:38.620Z,3.04
2023-02-16T05:27:42.633Z,3.05
2023-02-16T05:28:46.855Z,3.05
2023-02-16T05:29:51.031Z,3.05
2023-02-16T05:30:55.220Z,3.05
2023-02-16T05:31:59.383Z,3.05
2023-02-16T05:33:03.620Z,3.05
2023-02-16T05:34:07.853Z,3.06
2023-02-16T05:35:11.972Z,3.06
2023-02-16T05:36:16.152Z,3.06
2023-02-16T05:37:20.325Z,3.06
2023-02-16T05:38:24.494Z,3.06
2023-02-16T05:39:28.697Z,3.06
2023-02-16T05:40:32.857Z,3.05
2023-02-16T05:41:36.918Z,3.05
2023-02-16T05:42:41.121Z,3.04
2023-02-16T05:43:46.636Z,3.04
2023-02-16T05:44:49.519Z,3.04
2023-02-16T05:45:53.715Z,3.04
2023-02-16T05:46:57.812Z,3.03
2023-02-16T05:48:01.992Z,3.02
2023-02-16T05:49:06.043Z,3.02
2023-02-16T05:50:10.179Z,3.01
2023-02-16T05:51:14.406Z,3.01
2023-02-16T05:52:18.477Z,3.02
2023-02-16T05:53:22.678Z,3.03
2023-02-16T05:54:26.842Z,3.02
2023-02-16T05:55:31.086Z,3.02
2023-02-16T05:56:35.314Z,3.03
2023-02-16T05:57:39.394Z,3.02
2023-02-16T05:58:43.487Z,3.02
2023-02-16T05:59:47.758Z,3.02
2023-02-16T06:00:51.931Z,3.02
2023-02-16T06:01:55.950Z,3.02
2023-02-16T06:03:00.319Z,3.03
2023-02-16T06:04:04.294Z,3.03
2023-02-16T06:05:08.436Z,3.03
2023-02-16T06:06:12.585Z,3.02
2023-02-16T06:07:16.873Z,3.02
2023-02-16T06:08:20.972Z,3.02
2023-02-16T06:09:25.149Z,3.02
2023-02-16T06:10:29.347Z,3.02
2023-02-16T06:11:33.447Z,3.02
2023-02-16T06:12:37.643Z,3.02
2023-02-16T06:13:41.946Z,3.01
2023-02-16T06:14:46.159Z,3.01
2023-02-16T06:15:51.234Z,3.01
2023-02-16T06:16:54.888Z,3.01
2023-02-16T06:18:13.145Z,3.00
2023-02-16T06:19:16.071Z,3.00
2023-02-16T06:20:20.140Z,3.00
2023-02-16T06:21:24.231Z,3.01
2023-02-16T06:22:28.447Z,3.02
2023-02-16T06:23:46.661Z,3.03
2023-02-16T06:24:49.636Z,3.03
2023-02-16T06:25:53.768Z,3.03
2023-02-16T06:26:57.891Z,3.04
2023-02-16T06:28:02.068Z,3.04
2023-02-16T06:29:06.276Z,3.05
2023-02-16T06:30:10.553Z,3.04
2023-02-16T06:31:14.824Z,3.04
2023-02-16T06:32:18.990Z,3.04
2023-02-16T06:33:22.998Z,3.04
2023-02-16T06:34:27.184Z,3.04
2023-02-16T06:35:31.462Z,3.04
2023-02-16T06:36:35.469Z,3.04
2023-02-16T06:37:39.628Z,3.04
2023-02-16T06:38:43.712Z,3.04
2023-02-16T06:39:48.056Z,3.05
2023-02-16T06:40:52.201Z,3.05
2023-02-16T06:41:56.410Z,3.06
2023-02-16T06:43:00.618Z,3.07
2023-02-16T06:44:04.688Z,3.09
2023-02-16T06:45:08.956Z,3.10
2023-02-16T06:46:13.187Z,3.11
2023-02-16T06:47:17.287Z,3.12
2023-02-16T06:48:21.546Z,3.14
2023-02-16T06:49:27.719Z,3.15
2023-02-16T06:50:29.876Z,3.17
2023-02-16T06:51:34.953Z,3.18
2023-02-16T06:52:38.740Z,3.19
2023-02-16T06:53:43.070Z,3.21
2023-02-16T06:54:47.173Z,3.22
2023-02-16T06:55:51.355Z,3.23
2023-02-16T06:56:55.533Z,3.24
2023-02-16T06:57:59.807Z,3.24
2023-02-16T06:59:03.943Z,3.25
2023-02-16T07:00:08.076Z,3.26
2023-02-16T07:01:12.406Z,3.27
2023-02-16T07:02:16.527Z,3.28
2023-02-16T07:03:20.670Z,3.28
2023-02-16T07:04:24.698Z,3.29
2023-02-16T07:05:28.883Z,3.29
2023-02-16T07:06:32.954Z,3.29
2023-02-16T07:07:37.215Z,3.30
2023-02-16T07:08:41.480Z,3.31
2023-02-16T07:09:45.600Z,3.32
2023-02-16T07:10:50.598Z,3.32
2023-02-16T07:11:53.897Z,3.32
2023-02-16T07:12:58.067Z,3.32
2023-02-16T07:14:02.258Z,3.30
2023-02-16T07:15:06.467Z,3.30
2023-02-16T07:16:10.670Z,3.29
2023-02-16T07:17:14.714Z,3.29
2023-02-16T07:18:18.949Z,3.30
2023-02-16T07:19:37.182Z,3.30
2023-02-16T07:20:40.229Z,3.31
2023-02-16T07:21:44.422Z,3.33
2023-02-16T07:22:48.508Z,3.34
2023-02-16T07:23:52.722Z,3.36
2023-02-16T07:24:56.907Z,3.37
2023-02-16T07:26:01.119Z,3.39
2023-02-16T07:27:05.121Z,3.41
2023-02-16T07:28:09.319Z,3.42
2023-02-16T07:29:13.620Z,3.42
2023-02-16T07:30:17.796Z,3.43
2023-02-16T07:31:22.035Z,3.43
2023-02-16T07:32:26.210Z,3.43
2023-02-16T07:33:30.253Z,3.44
2023-02-16T07:34:34.317Z,3.45
2023-02-16T07:35:38.584Z,3.45
2023-02-16T07:36:42.742Z,3.46
2023-02-16T07:37:46.924Z,3.46
2023-02-16T07:38:51.173Z,3.46
2023-02-16T07:39:55.429Z,3.46
2023-02-16T07:40:59.532Z,3.47
2023-02-16T07:42:03.813Z,3.47
2023-02-16T07:43:08.012Z,3.47
2023-02-16T07:44:12.143Z,3.47
2023-02-16T07:45:16.381Z,3.47
2023-02-16T07:46:20.532Z,3.47
2023-02-16T07:47:24.605Z,3.48
2023-02-16T07:48:28.699Z,3.49
2023-02-16T07:49:39.087Z,3.49
2023-02-16T07:50:41.910Z,3.50
2023-02-16T07:51:46.019Z,3.52
2023-02-16T07:52:50.231Z,3.53
2023-02-16T07:53:54.364Z,3.56
2023-02-16T07:54:58.442Z,3.57
2023-02-16T07:56:02.796Z,3.58
2023-02-16T07:57:06.806Z,3.59
2023-02-16T07:58:11.041Z,3.60
2023-02-16T07:59:15.186Z,3.61
2023-02-16T08:00:19.385Z,3.63
2023-02-16T08:01:23.508Z,3.65
2023-02-16T08:02:27.980Z,3.68
2023-02-16T08:03:31.853Z,3.70
2023-02-16T08:04:36.097Z,3.72
2023-02-16T08:05:40.357Z,3.74
2023-02-16T08:06:44.342Z,3.76
2023-02-16T08:07:48.577Z,3.79
2023-02-16T08:08:52.678Z,3.81
2023-02-16T08:09:56.898Z,3.83
2023-02-16T08:11:01.069Z,3.85
2023-02-16T08:12:05.235Z,3.87
2023-02-16T08:13:09.434Z,3.89
2023-02-16T08:14:13.483Z,3.92
2023-02-16T08:15:17.714Z,3.95
2023-02-16T08:16:21.944Z,3.98
2023-02-16T08:17:26.075Z,4.00
2023-02-16T08:18:30.323Z,4.02
2023-02-16T08:19:34.424Z,4.05
2023-02-16T08:20:57.655Z,4.08
2023-02-16T08:21:42.810Z,4.10
2023-02-16T08:22:47.049Z,4.12
2023-02-16T08:23:51.089Z,4.13
2023-02-16T08:25:01.357Z,4.14
2023-02-16T08:26:04.599Z,4.16
2023-02-16T08:27:08.349Z,4.17
2023-02-16T08:28:15.519Z,4.19
2023-02-16T08:29:18.761Z,4.20
2023-02-16T08:30:23.020Z,4.21
2023-02-16T08:31:27.296Z,4.21
2023-02-16T08:32:31.487Z,4.22
2023-02-16T08:33:35.527Z,4.23
2023-02-16T08:34:42.225Z,4.23
2023-02-16T08:35:43.961Z,4.24
2023-02-16T08:36:48.158Z,4.26
2023-02-16T08:37:52.338Z,4.26
2023-02-16T08:38:56.622Z,4.27
2023-02-16T08:40:00.909Z,4.29
2023-02-16T08:41:05.005Z,4.30
2023-02-16T08:42:09.179Z,4.31
2023-02-16T08:43:13.460Z,4.33
2023-02-16T08:44:17.686Z,4.35
2023-02-16T08:45:21.719Z,4.37
2023-02-16T08:46:26.029Z,4.39
2023-02-16T08:47:30.159Z,4.41
2023-02-16T08:48:37.323Z,4.43
2023-02-16T08:49:40.632Z,4.45
2023-02-16T08:50:44.836Z,4.47
2023-02-16T08:51:49.009Z,4.49
2023-02-16T08:52:53.373Z,4.51
2023-02-16T08:53:57.504Z,4.54
2023-02-16T08:55:01.769Z,4.57
2023-02-16T08:56:06.379Z,4.59
2023-02-16T08:57:10.185Z,4.62
2023-02-16T08:58:14.415Z,4.64
2023-02-16T08:59:18.622Z,4.67
2023-02-16T09:00:22.849Z,4.69
2023-02-16T09:01:40.962Z,4.72
2023-02-16T09:02:43.554Z,4.75
2023-02-16T09:03:47.651Z,4.78
2023-02-16T09:04:52.163Z,4.81
2023-02-16T09:05:56.180Z,4.84
2023-02-16T09:07:00.363Z,4.86
2023-02-16T09:08:04.520Z,4.88
2023-02-16T09:09:08.746Z,4.91
2023-02-16T09:10:12.949Z,4.93
2023-02-16T09:11:17.066Z,4.94
2023-02-16T09:12:21.415Z,4.96
2023-02-16T09:13:25.564Z,4.98
2023-02-16T09:14:29.890Z,4.99
2023-02-16T09:15:34.046Z,5.00
2023-02-16T09:16:38.401Z,5.02
2023-02-16T09:17:42.383Z,5.04
2023-02-16T09:18:46.615Z,5.07
2023-02-16T09:19:50.898Z,5.10
2023-02-16T09:20:55.076Z,5.12
2023-02-16T09:21:59.261Z,5.15
2023-02-16T09:23:03.464Z,5.18
2023-02-16T09:24:07.749Z,5.21
2023-02-16T09:25:11.953Z,5.24
2023-02-16T09:26:16.116Z,5.27
2023-02-16T09:27:20.427Z,5.30
2023-02-16T09:28:24.565Z,5.33
2023-02-16T09:29:28.751Z,5.36
2023-02-16T09:30:33.200Z,5.39
2023-02-16T09:31:37.404Z,5.42
2023-02-16T09:32:41.256Z,5.45
2023-02-16T09:33:45.568Z,5.47
2023-02-16T09:34:49.813Z,5.50
2023-02-16T09:35:54.060Z,5.52
2023-02-16T09:36:58.313Z,5.55
2023-02-16T09:38:02.567Z,5.58
2023-02-16T09:39:06.837Z,5.60
2023-02-16T09:40:11.124Z,5.62
2023-02-16T09:41:15.260Z,5.65
2023-02-16T09:42:19.541Z,5.69
2023-02-16T09:43:23.710Z,5.72
2023-02-16T09:44:27.797Z,5.75
2023-02-16T09:45:32.929Z,5.79
2023-02-16T09:46:36.831Z,5.83
2023-02-16T09:47:40.980Z,5.86
2023-02-16T09:48:45.279Z,5.90
2023-02-16T09:49:49.414Z,5.94
2023-02-16T09:50:54.785Z,5.98
2023-02-16T09:51:57.828Z,6.01
2023-02-16T09:53:02.005Z,6.05
2023-02-16T09:54:06.117Z,6.08
2023-02-16T09:55:10.413Z,6.11
2023-02-16T09:56:14.720Z,6.14
2023-02-16T09:57:18.763Z,6.17
2023-02-16T09:58:23.045Z,6.20
2023-02-16T09:59:27.218Z,6.22
2023-02-16T10:00:31.410Z,6.25
2023-02-16T10:01:35.728Z,6.26
2023-02-16T10:02:40.111Z,6.29
2023-02-16T10:03:44.187Z,6.31
2023-02-16T10:04:48.468Z,6.33
2023-02-16T10:05:52.709Z,6.35
2023-02-16T10:06:56.988Z,6.38
2023-02-16T10:08:01.140Z,6.41
2023-02-16T10:09:05.310Z,6.44
2023-02-16T10:10:09.528Z,6.48
2023-02-16T10:11:13.847Z,6.52
2023-02-16T10:12:18.007Z,6.57
2023-02-16T10:13:22.198Z,6.62
2023-02-16T10:14:26.511Z,6.67
2023-02-16T10:15:30.723Z,6.73
2023-02-16T10:16:34.889Z,6.78
2023-02-16T10:17:39.117Z,6.83
2023-02-16T10:18:43.430Z,6.88
2023-02-16T10:19:47.633Z,6.93
2023-02-16T10:20:51.864Z,6.97
2023-02-16T10:21:56.113Z,7.01
2023-02-16T10:23:00.406Z,7.04
2023-02-16T10:24:04.544Z,7.08
2023-02-16T10:25:08.846Z,7.12
2023-02-16T10:26:12.981Z,7.16
2023-02-16T10:27:17.229Z,7.20
2023-02-16T10:28:22.955Z,7.24
2023-02-16T10:29:25.713Z,7.26
2023-02-16T10:30:30.075Z,7.29
2023-02-16T10:31:34.269Z,7.32
2023-02-16T10:32:43.735Z,7.35
2023-02-16T10:33:42.612Z,7.39
2023-02-16T10:34:46.913Z,7.42
2023-02-16T10:35:51.077Z,7.45
2023-02-16T10:36:55.281Z,7.49
2023-02-16T10:37:59.607Z,7.53
2023-02-16T10:39:03.762Z,7.56
2023-02-16T10:40:08.071Z,7.60
2023-02-16T10:41:12.144Z,7.64
2023-02-16T10:42:16.473Z,7.67
2023-02-16T10:43:20.661Z,7.69
2023-02-16T10:44:24.917Z,7.72
2023-02-16T10:45:29.064Z,7.73
2023-02-16T10:46:33.420Z,7.74
2023-02-16T10:47:37.590Z,7.75
2023-02-16T10:48:41.783Z,7.75
2023-02-16T10:49:46.000Z,7.75
2023-02-16T10:50:50.221Z,7.76
2023-02-16T10:51:54.403Z,7.76
2023-02-16T10:52:58.638Z,7.76
2023-02-16T10:54:03.024Z,7.76
2023-02-16T10:55:07.226Z,7.76
2023-02-16T10:56:11.454Z,7.75
2023-02-16T10:57:15.611Z,7.76
2023-02-16T10:58:21.747Z,7.75
2023-02-16T10:59:24.041Z,7.74
2023-02-16T11:00:28.385Z,7.74
2023-02-16T11:01:32.519Z,7.73
2023-02-16T11:02:36.664Z,7.73
2023-02-16T11:03:40.914Z,7.72
2023-02-16T11:04:45.185Z,7.71
2023-02-16T11:05:49.310Z,7.69
2023-02-16T11:06:53.532Z,7.68
2023-02-16T11:07:57.745Z,7.66
2023-02-16T11:09:01.948Z,7.64
2023-02-16T11:10:06.105Z,7.62
2023-02-16T11:11:10.357Z,7.60
2023-02-16T11:12:14.492Z,7.58
2023-02-16T11:13:18.763Z,7.56
2023-02-16T11:14:23.007Z,7.54
2023-02-16T11:15:27.270Z,7.52
2023-02-16T11:16:31.530Z,7.50
2023-02-16T11:17:35.602Z,7.48
2023-02-16T11:18:42.829Z,7.46
2023-02-16T11:19:46.068Z,7.45
2023-02-16T11:20:50.270Z,7.44
2023-02-16T11:21:54.423Z,7.44
2023-02-16T11:22:58.735Z,7.43
2023-02-16T11:24:16.984Z,7.43
2023-02-16T11:25:20.123Z,7.43
2023-02-16T11:26:24.271Z,7.43
2023-02-16T11:27:28.486Z,7.44
2023-02-16T11:28:32.913Z,7.44
2023-02-16T11:29:36.936Z,7.45
2023-02-16T11:30:41.341Z,7.45
2023-02-16T11:31:45.576Z,7.45
2023-02-16T11:32:49.544Z,7.46
2023-02-16T11:33:53.763Z,7.46
2023-02-16T11:34:57.980Z,7.46
2023-02-16T11:36:02.184Z,7.46
2023-02-16T11:37:06.466Z,7.46
2023-02-16T11:38:10.593Z,7.46
2023-02-16T11:39:14.712Z,7.47
2023-02-16T11:40:18.970Z,7.48
2023-02-16T11:41:23.196Z,7.49
2023-02-16T11:42:27.511Z,7.50
2023-02-16T11:43:31.673Z,7.51
2023-02-16T11:44:35.913Z,7.52
2023-02-16T11:45:40.130Z,7.52
2023-02-16T11:46:44.394Z,7.52
2023-02-16T11:47:48.620Z,7.52
2023-02-16T11:48:52.850Z,7.53
2023-02-16T11:50:03.074Z,7.52
2023-02-16T11:51:06.345Z,7.52
2023-02-16T11:52:10.017Z,7.52
2023-02-16T11:53:14.210Z,7.53
2023-02-16T11:54:18.539Z,7.54
2023-02-16T11:55:22.709Z,7.55
2023-02-16T11:56:33.018Z,7.56
2023-02-16T11:57:35.677Z,7.57
2023-02-16T11:58:39.913Z,7.58
2023-02-16T11:59:50.171Z,7.59
2023-02-16T12:00:53.011Z,7.60
2023-02-16T12:02:11.144Z,7.61
2023-02-16T12:03:20.161Z,7.62
2023-02-16T12:04:22.890Z,7.64
2023-02-16T12:05:27.118Z,7.65
2023-02-16T12:06:31.359Z,7.66
2023-02-16T12:07:38.626Z,7.67
2023-02-16T12:08:41.869Z,7.68
2023-02-16T12:09:46.084Z,7.69
2023-02-16T12:10:50.326Z,7.69
2023-02-16T12:11:54.498Z,7.69
2023-02-16T12:12:58.685Z,7.69
2023-02-16T12:14:02.999Z,7.70
2023-02-16T12:15:07.194Z,7.71
2023-02-16T12:16:11.807Z,7.72
2023-02-16T12:17:15.658Z,7.72
2023-02-16T12:18:19.853Z,7.73
2023-02-16T12:19:24.125Z,7.75
2023-02-16T12:20:42.337Z,7.76
2023-02-16T12:21:45.392Z,7.78
2023-02-16T12:22:49.603Z,7.80
2023-02-16T12:23:53.796Z,7.82
2023-02-16T12:24:58.008Z,7.85
2023-02-16T12:26:02.919Z,7.87
2023-02-16T12:27:06.493Z,7.90
2023-02-16T12:28:13.261Z,7.92
2023-02-16T12:29:15.057Z,7.93
2023-02-16T12:30:19.369Z,7.95
2023-02-16T12:31:23.671Z,7.96
2023-02-16T12:32:27.684Z,7.97
2023-02-16T12:33:31.978Z,7.98
2023-02-16T12:34:36.183Z,8.00
2023-02-16T12:35:40.407Z,8.00
2023-02-16T12:36:44.631Z,8.00
2023-02-16T12:37:48.856Z,8.00
2023-02-16T12:38:53.029Z,7.99
2023-02-16T12:39:57.322Z,7.98
2023-02-16T12:41:01.586Z,7.97
2023-02-16T12:42:05.802Z,7.96
2023-02-16T12:43:10.019Z,7.95
2023-02-16T12:44:14.334Z,7.94
2023-02-16T12:45:18.582Z,7.94
2023-02-16T12:46:23.977Z,7.94
2023-02-16T12:47:26.964Z,7.94
2023-02-16T12:48:31.254Z,7.95
2023-02-16T12:49:35.493Z,7.96
2023-02-16T12:50:39.748Z,7.98
2023-02-16T12:51:44.021Z,7.99
2023-02-16T12:52:48.231Z,7.99
2023-02-16T12:53:52.534Z,7.99
2023-02-16T12:54:56.793Z,7.98
2023-02-16T12:56:00.975Z,7.98
2023-02-16T12:57:05.273Z,7.96
2023-02-16T12:58:09.466Z,7.95
2023-02-16T12:59:13.780Z,7.93
2023-02-16T13:00:17.974Z,7.91
2023-02-16T13:01:22.239Z,7.90
2023-02-16T13:02:26.421Z,7.89
2023-02-16T13:03:30.691Z,7.88
2023-02-16T13:04:34.820Z,7.87
2023-02-16T13:05:39.070Z,7.87
2023-02-16T13:06:43.188Z,7.86
2023-02-16T13:07:48.375Z,7.86
2023-02-16T13:08:52.218Z,7.86
2023-02-16T13:09:56.408Z,7.87
2023-02-16T13:11:00.704Z,7.89
2023-02-16T13:12:04.948Z,7.90
2023-02-16T13:13:09.210Z,7.92
2023-02-16T13:14:16.372Z,7.95
2023-02-16T13:15:19.655Z,7.99
2023-02-16T13:16:30.601Z,8.02
2023-02-16T13:17:28.069Z,8.07
2023-02-16T13:18:32.386Z,8.12
2023-02-16T13:19:36.597Z,8.16
2023-02-16T13:20:40.815Z,8.20
2023-02-16T13:21:50.962Z,8.23
2023-02-16T13:23:03.400Z,8.25
2023-02-16T13:24:06.634Z,8.26
2023-02-16T13:25:10.947Z,8.27
2023-02-16T13:26:15.159Z,8.28
2023-02-16T13:27:19.373Z,8.29
2023-02-16T13:28:23.752Z,8.31
2023-02-16T13:29:27.785Z,8.32
2023-02-16T13:30:32.278Z,8.34
2023-02-16T13:31:36.437Z,8.36
2023-02-16T13:32:40.552Z,8.38
2023-02-16T13:33:44.706Z,8.39
2023-02-16T13:34:49.051Z,8.41
2023-02-16T13:35:53.219Z,8.44
2023-02-16T13:36:57.485Z,8.46
2023-02-16T13:38:01.678Z,8.48
2023-02-16T13:39:05.942Z,8.50
2023-02-16T13:40:10.070Z,8.52
2023-02-16T13:41:14.461Z,8.54
2023-02-16T13:42:18.834Z,8.55
2023-02-16T13:43:23.019Z,8.56
2023-02-16T13:44:27.227Z,8.57
2023-02-16T13:45:31.541Z,8.57
2023-02-16T13:46:35.739Z,8.57
2023-02-16T13:47:40.040Z,8.58
2023-02-16T13:48:44.272Z,8.58
2023-02-16T13:49:48.502Z,8.58
2023-02-16T13:50:52.742Z,8.58
2023-02-16T13:51:57.049Z,8.58
2023-02-16T13:53:01.349Z,8.58
2023-02-16T13:54:05.501Z,8.58
2023-02-16T13:55:09.753Z,8.57
2023-02-16T13:56:14.110Z,8.56
2023-02-16T13:57:18.270Z,8.56
2023-02-16T13:58:22.573Z,8.56
2023-02-16T13:59:26.718Z,8.55
2023-02-16T14:00:45.017Z,8.54
2023-02-16T14:01:48.140Z,8.53
2023-02-16T14:02:52.288Z,8.53
2023-02-16T14:03:56.577Z,8.53
2023-02-16T14:05:00.766Z,8.53
2023-02-16T14:06:05.485Z,8.53
2023-02-16T14:07:09.197Z,8.54
2023-02-16T14:08:13.550Z,8.54
2023-02-16T14:09:17.666Z,8.55
2023-02-16T14:10:21.944Z,8.55
2023-02-16T14:11:26.252Z,8.56
2023-02-16T14:12:30.518Z,8.56
2023-02-16T14:13:34.747Z,8.56
2023-02-16T14:14:39.017Z,8.56
2023-02-16T14:15:43.280Z,8.56
2023-02-16T14:16:47.441Z,8.55
2023-02-16T14:17:54.709Z,8.54
2023-02-16T14:18:58.107Z,8.54